KTRL/TRL METAR and TAF weather

Enter ICAO airport designator
Station Type Date Time Source
KTRL METAR 2019/04/25 15:53 UTC NOAA

KTRL 251553Z AUTO 29008KT 10SM CLR 21/13 A2985 RMK AO2 SLP102 T02110133


Station Type Date Time Source
KTRL Decoded METAR 2019/04/25 15:53 UTC NOAA

TERRELL MUNICIPAL AIRPORT, TX, United States (KTRL) 32-43N 96-16W 144M
Apr 25, 2019 - 11:53 AM EDT / 2019.04.25 1553 UTC
Wind: from the WNW (290 degrees) at 9 MPH (8 KT):0
Visibility: 10 mile(s):0
Sky conditions: clear
Temperature: 70.0 F (21.1 C)
Dew Point: 55.9 F (13.3 C)
Relative Humidity: 61%
Pressure (altimeter): 29.85 in. Hg (1010 hPa)
ob: KTRL 251553Z AUTO 29008KT 10SM CLR 21/13 A2985 RMK AO2 SLP102 T02110133
cycle: 16

Station Type Date Time Source
KTRL TAF UTC NOAA

Error!

Example: see airport list